sensor_id;sensor_type;location;lat;lon;timestamp;pressure;altitude;pressure_sealevel;temperature;humidity
76998;BME280;65930;48.874;10.734;2024-01-07T00:01:08;95293.88;;;3.99;97.55
76998;BME280;65930;48.874;10.734;2024-01-07T00:03:40;95298.16;;;4.37;96.40
76998;BME280;65930;48.874;10.734;2024-01-07T00:06:10;95289.97;;;4.44;95.67
76998;BME280;65930;48.874;10.734;2024-01-07T00:08:38;95295.91;;;4.54;94.59
76998;BME280;65930;48.874;10.734;2024-01-07T00:11:06;95296.63;;;3.63;97.95
76998;BME280;65930;48.874;10.734;2024-01-07T00:13:34;95295.53;;;4.11;97.49
76998;BME280;65930;48.874;10.734;2024-01-07T00:16:02;95290.78;;;4.01;96.91
76998;BME280;65930;48.874;10.734;2024-01-07T00:18:31;95296.47;;;3.48;99.83
76998;BME280;65930;48.874;10.734;2024-01-07T00:21:00;95303.75;;;4.08;97.89
76998;BME280;65930;48.874;10.734;2024-01-07T00:23:28;95299.28;;;3.92;97.53
76998;BME280;65930;48.874;10.734;2024-01-07T00:25:56;95297.25;;;3.82;97.56
76998;BME280;65930;48.874;10.734;2024-01-07T00:28:24;95311.44;;;3.95;98.27
76998;BME280;65930;48.874;10.734;2024-01-07T00:30:52;95307.22;;;4.01;98.33
76998;BME280;65930;48.874;10.734;2024-01-07T00:33:20;95303.22;;;3.95;98.75
76998;BME280;65930;48.874;10.734;2024-01-07T00:35:48;95298.03;;;4.23;97.07
76998;BME280;65930;48.874;10.734;2024-01-07T00:38:18;95295.25;;;3.83;99.37
76998;BME280;65930;48.874;10.734;2024-01-07T00:40:46;95302.34;;;3.50;100.00
76998;BME280;65930;48.874;10.734;2024-01-07T00:43:14;95301.47;;;3.76;100.00
76998;BME280;65930;48.874;10.734;2024-01-07T00:45:42;95303.91;;;3.85;99.78
76998;BME280;65930;48.874;10.734;2024-01-07T00:48:10;95302.97;;;3.70;100.00
76998;BME280;65930;48.874;10.734;2024-01-07T00:50:38;95306.78;;;3.99;99.10
76998;BME280;65930;48.874;10.734;2024-01-07T00:53:06;95306.06;;;3.69;99.68
76998;BME280;65930;48.874;10.734;2024-01-07T00:55:36;95310.19;;;3.85;100.00
76998;BME280;65930;48.874;10.734;2024-01-07T00:58:04;95311.50;;;4.02;98.34
76998;BME280;65930;48.874;10.734;2024-01-07T01:00:32;95308.63;;;3.88;99.04
76998;BME280;65930;48.874;10.734;2024-01-07T01:03:00;95308.81;;;4.06;98.63
76998;BME280;65930;48.874;10.734;2024-01-07T01:05:28;95315.38;;;3.97;98.67
76998;BME280;65930;48.874;10.734;2024-01-07T01:07:56;95317.78;;;3.66;99.41
76998;BME280;65930;48.874;10.734;2024-01-07T01:10:24;95315.41;;;3.64;99.96
76998;BME280;65930;48.874;10.734;2024-01-07T01:12:53;95311.84;;;3.60;100.00
76998;BME280;65930;48.874;10.734;2024-01-07T01:15:21;95320.69;;;3.80;100.00
76998;BME280;65930;48.874;10.734;2024-01-07T01:17:49;95321.59;;;3.91;99.29
76998;BME280;65930;48.874;10.734;2024-01-07T01:20:18;95324.66;;;3.86;99.67
76998;BME280;65930;48.874;10.734;2024-01-07T01:22:46;95320.22;;;3.74;100.00
76998;BME280;65930;48.874;10.734;2024-01-07T01:25:14;95313.53;;;4.09;99.27
76998;BME280;65930;48.874;10.734;2024-01-07T01:27:42;95322.09;;;3.67;100.00
76998;BME280;65930;48.874;10.734;2024-01-07T01:30:12;95325.81;;;3.85;100.00
76998;BME280;65930;48.874;10.734;2024-01-07T01:32:41;95326.66;;;3.55;100.00
76998;BME280;65930;48.874;10.734;2024-01-07T01:35:10;95321.44;;;3.43;100.00
76998;BME280;65930;48.874;10.734;2024-01-07T01:37:38;95325.63;;;3.67;100.00
76998;BME280;65930;48.874;10.734;2024-01-07T01:40:06;95315.91;;;3.40;100.00
76998;BME280;65930;48.874;10.734;2024-01-07T01:42:35;95322.25;;;3.47;100.00
76998;BME280;65930;48.874;10.734;2024-01-07T01:45:03;95328.94;;;3.83;100.00
76998;BME280;65930;48.874;10.734;2024-01-07T01:47:33;95323.97;;;3.59;100.00
76998;BME280;65930;48.874;10.734;2024-01-07T01:50:01;95330.97;;;3.90;99.66
76998;BME280;65930;48.874;10.734;2024-01-07T01:52:29;95327.88;;;3.91;99.64
76998;BME280;65930;48.874;10.734;2024-01-07T01:54:59;95319.25;;;3.60;100.00
76998;BME280;65930;48.874;10.734;2024-01-07T01:57:33;95329.31;;;3.82;100.00
76998;BME280;65930;48.874;10.734;2024-01-07T02:00:02;95327.03;;;3.54;100.00
76998;BME280;65930;48.874;10.734;2024-01-07T02:02:32;95325.75;;;3.78;100.00
76998;BME280;65930;48.874;10.734;2024-01-07T02:05:02;95327.75;;;3.81;100.00
76998;BME280;65930;48.874;10.734;2024-01-07T02:07:31;95332.88;;;3.86;99.87
76998;BME280;65930;48.874;10.734;2024-01-07T02:09:59;95327.56;;;3.67;100.00
76998;BME280;65930;48.874;10.734;2024-01-07T02:12:27;95330.47;;;3.47;100.00
76998;BME280;65930;48.874;10.734;2024-01-07T02:14:55;95335.13;;;3.77;99.50
76998;BME280;65930;48.874;10.734;2024-01-07T02:17:23;95332.88;;;3.86;99.26
76998;BME280;65930;48.874;10.734;2024-01-07T02:19:53;95334.69;;;3.75;100.00
76998;BME280;65930;48.874;10.734;2024-01-07T02:22:21;95326.31;;;3.61;100.00
76998;BME280;65930;48.874;10.734;2024-01-07T02:24:50;95333.50;;;3.72;100.00
76998;BME280;65930;48.874;10.734;2024-01-07T02:27:18;95332.47;;;3.84;99.23
76998;BME280;65930;48.874;10.734;2024-01-07T02:29:46;95324.00;;;3.63;100.00
76998;BME280;65930;48.874;10.734;2024-01-07T02:32:14;95325.06;;;3.88;98.82
76998;BME280;65930;48.874;10.734;2024-01-07T02:34:42;95322.50;;;3.69;100.00
76998;BME280;65930;48.874;10.734;2024-01-07T02:37:11;95322.53;;;4.06;97.91
76998;BME280;65930;48.874;10.734;2024-01-07T02:39:39;95326.75;;;3.96;99.13
76998;BME280;65930;48.874;10.734;2024-01-07T02:42:11;95329.75;;;3.87;98.65
76998;BME280;65930;48.874;10.734;2024-01-07T02:44:39;95320.59;;;3.39;100.00
76998;BME280;65930;48.874;10.734;2024-01-07T02:47:06;95320.34;;;3.51;100.00
76998;BME280;65930;48.874;10.734;2024-01-07T02:49:34;95328.63;;;3.92;99.64
76998;BME280;65930;48.874;10.734;2024-01-07T02:52:03;95329.00;;;3.87;98.30
76998;BME280;65930;48.874;10.734;2024-01-07T02:54:31;95318.22;;;3.71;100.00
76998;BME280;65930;48.874;10.734;2024-01-07T02:56:59;95322.44;;;3.98;98.88
76998;BME280;65930;48.874;10.734;2024-01-07T02:59:29;95322.59;;;3.76;99.65
76998;BME280;65930;48.874;10.734;2024-01-07T03:01:57;95316.44;;;3.86;98.50
76998;BME280;65930;48.874;10.734;2024-01-07T03:04:25;95323.28;;;3.69;99.04
76998;BME280;65930;48.874;10.734;2024-01-07T03:06:53;95332.75;;;3.75;98.92
76998;BME280;65930;48.874;10.734;2024-01-07T03:09:21;95323.13;;;3.55;98.86
76998;BME280;65930;48.874;10.734;2024-01-07T03:11:49;95337.53;;;3.82;98.49
76998;BME280;65930;48.874;10.734;2024-01-07T03:14:17;95332.84;;;3.19;100.00
76998;BME280;65930;48.874;10.734;2024-01-07T03:16:49;95329.88;;;3.65;100.00
76998;BME280;65930;48.874;10.734;2024-01-07T03:19:17;95329.44;;;3.59;100.00
76998;BME280;65930;48.874;10.734;2024-01-07T03:21:45;95332.47;;;3.84;98.75
76998;BME280;65930;48.874;10.734;2024-01-07T03:24:13;95320.00;;;3.57;99.25
76998;BME280;65930;48.874;10.734;2024-01-07T03:26:41;95336.22;;;3.39;99.82
76998;BME280;65930;48.874;10.734;2024-01-07T03:29:09;95332.09;;;3.85;98.35
76998;BME280;65930;48.874;10.734;2024-01-07T03:31:37;95330.34;;;3.70;99.44
76998;BME280;65930;48.874;10.734;2024-01-07T03:34:06;95326.03;;;3.69;99.02
76998;BME280;65930;48.874;10.734;2024-01-07T03:36:34;95331.72;;;3.53;99.99
76998;BME280;65930;48.874;10.734;2024-01-07T03:39:03;95332.28;;;4.03;96.96
76998;BME280;65930;48.874;10.734;2024-01-07T03:41:31;95332.22;;;3.63;98.22
76998;BME280;65930;48.874;10.734;2024-01-07T03:43:59;95334.47;;;3.87;98.11
76998;BME280;65930;48.874;10.734;2024-01-07T03:46:27;95332.69;;;4.05;97.34
76998;BME280;65930;48.874;10.734;2024-01-07T03:48:55;95334.75;;;3.45;99.92
76998;BME280;65930;48.874;10.734;2024-01-07T03:51:24;95340.25;;;3.48;99.94
76998;BME280;65930;48.874;10.734;2024-01-07T03:53:52;95342.09;;;3.71;98.61
76998;BME280;65930;48.874;10.734;2024-01-07T03:56:23;95334.97;;;3.63;99.05
76998;BME280;65930;48.874;10.734;2024-01-07T03:58:51;95348.00;;;3.13;100.00
76998;BME280;65930;48.874;10.734;2024-01-07T04:01:19;95346.00;;;3.70;99.28
76998;BME280;65930;48.874;10.734;2024-01-07T04:03:47;95357.09;;;3.50;100.00
76998;BME280;65930;48.874;10.734;2024-01-07T04:06:15;95350.31;;;3.71;100.00
76998;BME280;65930;48.874;10.734;2024-01-07T04:08:45;95354.69;;;3.45;100.00
76998;BME280;65930;48.874;10.734;2024-01-07T04:11:13;95355.28;;;3.32;100.00
76998;BME280;65930;48.874;10.734;2024-01-07T04:13:41;95361.28;;;3.41;100.00
76998;BME280;65930;48.874;10.734;2024-01-07T04:16:15;95358.34;;;3.57;100.00
76998;BME280;65930;48.874;10.734;2024-01-07T04:18:44;95359.53;;;3.89;97.57
76998;BME280;65930;48.874;10.734;2024-01-07T04:21:18;95367.41;;;3.94;96.84
76998;BME280;65930;48.874;10.734;2024-01-07T04:23:48;95358.03;;;3.95;96.36
76998;BME280;65930;48.874;10.734;2024-01-07T04:26:16;95358.34;;;3.57;99.07
76998;BME280;65930;48.874;10.734;2024-01-07T04:28:44;95369.22;;;3.49;99.20
76998;BME280;65930;48.874;10.734;2024-01-07T04:31:12;95368.69;;;3.70;98.77
76998;BME280;65930;48.874;10.734;2024-01-07T04:33:40;95370.25;;;3.68;98.38
76998;BME280;65930;48.874;10.734;2024-01-07T04:36:08;95367.84;;;3.36;99.56
76998;BME280;65930;48.874;10.734;2024-01-07T04:38:36;95383.84;;;3.31;99.48
76998;BME280;65930;48.874;10.734;2024-01-07T04:41:05;95382.34;;;3.37;99.19
76998;BME280;65930;48.874;10.734;2024-01-07T04:43:34;95380.63;;;3.25;98.83
76998;BME280;65930;48.874;10.734;2024-01-07T04:46:02;95384.22;;;3.03;100.00
76998;BME280;65930;48.874;10.734;2024-01-07T04:48:30;95379.69;;;3.14;98.10
76998;BME280;65930;48.874;10.734;2024-01-07T04:50:58;95381.25;;;2.89;99.83
76998;BME280;65930;48.874;10.734;2024-01-07T04:53:26;95388.09;;;3.02;99.32
76998;BME280;65930;48.874;10.734;2024-01-07T04:55:54;95394.94;;;3.15;98.93
76998;BME280;65930;48.874;10.734;2024-01-07T04:58:23;95393.16;;;3.26;98.03
76998;BME280;65930;48.874;10.734;2024-01-07T05:00:51;95395.03;;;3.48;97.05
76998;BME280;65930;48.874;10.734;2024-01-07T05:03:19;95390.41;;;3.00;99.88
76998;BME280;65930;48.874;10.734;2024-01-07T05:05:47;95405.06;;;3.11;98.66
76998;BME280;65930;48.874;10.734;2024-01-07T05:08:15;95401.47;;;3.07;99.48
76998;BME280;65930;48.874;10.734;2024-01-07T05:10:43;95400.78;;;3.70;97.04
76998;BME280;65930;48.874;10.734;2024-01-07T05:13:11;95406.41;;;3.24;98.39
76998;BME280;65930;48.874;10.734;2024-01-07T05:15:41;95404.16;;;3.30;97.65
76998;BME280;65930;48.874;10.734;2024-01-07T05:18:09;95412.41;;;3.33;97.80
76998;BME280;65930;48.874;10.734;2024-01-07T05:20:38;95409.03;;;3.43;96.96
76998;BME280;65930;48.874;10.734;2024-01-07T05:23:06;95408.50;;;2.82;100.00
76998;BME280;65930;48.874;10.734;2024-01-07T05:25:34;95414.63;;;2.98;99.50
76998;BME280;65930;48.874;10.734;2024-01-07T05:28:03;95425.00;;;3.12;98.95
76998;BME280;65930;48.874;10.734;2024-01-07T05:30:31;95426.13;;;2.61;99.92
76998;BME280;65930;48.874;10.734;2024-01-07T05:33:00;95416.31;;;3.06;99.24
76998;BME280;65930;48.874;10.734;2024-01-07T05:35:28;95420.47;;;2.96;99.86
76998;BME280;65930;48.874;10.734;2024-01-07T05:37:56;95423.47;;;3.14;99.40
76998;BME280;65930;48.874;10.734;2024-01-07T05:40:24;95419.94;;;3.14;97.80
76998;BME280;65930;48.874;10.734;2024-01-07T05:42:52;95430.81;;;2.84;100.00
76998;BME280;65930;48.874;10.734;2024-01-07T05:45:20;95439.97;;;2.95;99.23
76998;BME280;65930;48.874;10.734;2024-01-07T05:47:48;95440.41;;;2.74;98.58
76998;BME280;65930;48.874;10.734;2024-01-07T05:50:18;95437.72;;;2.55;100.00
76998;BME280;65930;48.874;10.734;2024-01-07T05:52:47;95444.41;;;3.03;98.83
76998;BME280;65930;48.874;10.734;2024-01-07T05:55:15;95436.34;;;2.87;98.75
76998;BME280;65930;48.874;10.734;2024-01-07T05:57:43;95436.94;;;2.77;98.67
76998;BME280;65930;48.874;10.734;2024-01-07T06:00:12;95443.31;;;3.07;97.96
76998;BME280;65930;48.874;10.734;2024-01-07T06:02:40;95452.94;;;2.98;97.84
76998;BME280;65930;48.874;10.734;2024-01-07T06:05:08;95454.97;;;2.36;100.00
76998;BME280;65930;48.874;10.734;2024-01-07T06:07:38;95445.91;;;2.32;100.00
76998;BME280;65930;48.874;10.734;2024-01-07T06:10:06;95448.00;;;2.61;99.37
76998;BME280;65930;48.874;10.734;2024-01-07T06:12:35;95448.63;;;2.51;99.93
76998;BME280;65930;48.874;10.734;2024-01-07T06:15:03;95450.47;;;2.47;100.00
76998;BME280;65930;48.874;10.734;2024-01-07T06:17:32;95453.63;;;2.95;97.36
76998;BME280;65930;48.874;10.734;2024-01-07T06:20:00;95452.94;;;2.75;97.77
76998;BME280;65930;48.874;10.734;2024-01-07T06:22:29;95457.78;;;2.62;99.51
76998;BME280;65930;48.874;10.734;2024-01-07T06:24:58;95458.84;;;2.35;100.00
76998;BME280;65930;48.874;10.734;2024-01-07T06:27:29;95456.81;;;2.51;100.00
76998;BME280;65930;48.874;10.734;2024-01-07T06:29:57;95464.09;;;2.66;99.03
76998;BME280;65930;48.874;10.734;2024-01-07T06:32:25;95469.34;;;2.75;99.39
76998;BME280;65930;48.874;10.734;2024-01-07T06:34:53;95463.31;;;2.24;100.00
76998;BME280;65930;48.874;10.734;2024-01-07T06:37:21;95460.97;;;2.03;100.00
76998;BME280;65930;48.874;10.734;2024-01-07T06:39:49;95477.78;;;2.66;99.49
76998;BME280;65930;48.874;10.734;2024-01-07T06:42:18;95483.53;;;2.61;99.18
76998;BME280;65930;48.874;10.734;2024-01-07T06:44:46;95485.66;;;2.49;99.37
76998;BME280;65930;48.874;10.734;2024-01-07T06:47:14;95485.03;;;2.78;97.87
76998;BME280;65930;48.874;10.734;2024-01-07T06:49:42;95485.31;;;2.50;97.80
76998;BME280;65930;48.874;10.734;2024-01-07T06:52:10;95481.22;;;2.41;99.69
76998;BME280;65930;48.874;10.734;2024-01-07T06:54:38;95487.72;;;2.33;98.91
76998;BME280;65930;48.874;10.734;2024-01-07T06:57:06;95494.25;;;2.28;99.14
76998;BME280;65930;48.874;10.734;2024-01-07T06:59:36;95493.97;;;2.33;97.25
76998;BME280;65930;48.874;10.734;2024-01-07T07:02:04;95500.13;;;2.30;97.21
76998;BME280;65930;48.874;10.734;2024-01-07T07:04:32;95505.88;;;2.06;99.56
76998;BME280;65930;48.874;10.734;2024-01-07T07:07:00;95504.75;;;2.26;97.38
76998;BME280;65930;48.874;10.734;2024-01-07T07:09:28;95504.50;;;2.35;98.02
76998;BME280;65930;48.874;10.734;2024-01-07T07:11:56;95510.91;;;1.85;98.85
76998;BME280;65930;48.874;10.734;2024-01-07T07:14:24;95504.63;;;2.19;95.93
76998;BME280;65930;48.874;10.734;2024-01-07T07:16:54;95512.38;;;2.17;97.35
76998;BME280;65930;48.874;10.734;2024-01-07T07:19:22;95506.16;;;2.20;95.44
76998;BME280;65930;48.874;10.734;2024-01-07T07:21:50;95508.13;;;2.00;97.06
76998;BME280;65930;48.874;10.734;2024-01-07T07:24:18;95508.44;;;2.14;96.16
76998;BME280;65930;48.874;10.734;2024-01-07T07:26:46;95500.22;;;1.95;96.23
76998;BME280;65930;48.874;10.734;2024-01-07T07:29:14;95500.41;;;2.06;96.06
76998;BME280;65930;48.874;10.734;2024-01-07T07:31:42;95503.94;;;1.87;96.40
76998;BME280;65930;48.874;10.734;2024-01-07T07:34:11;95510.50;;;2.02;95.65
76998;BME280;65930;48.874;10.734;2024-01-07T07:36:40;95507.25;;;1.77;96.68
76998;BME280;65930;48.874;10.734;2024-01-07T07:39:09;95513.91;;;2.14;95.09
76998;BME280;65930;48.874;10.734;2024-01-07T07:41:38;95519.97;;;1.89;96.15
76998;BME280;65930;48.874;10.734;2024-01-07T07:44:06;95521.28;;;2.14;94.96
76998;BME280;65930;48.874;10.734;2024-01-07T07:46:34;95520.25;;;1.84;95.51
76998;BME280;65930;48.874;10.734;2024-01-07T07:49:02;95531.22;;;2.22;95.80
76998;BME280;65930;48.874;10.734;2024-01-07T07:51:31;95541.94;;;1.76;95.69
76998;BME280;65930;48.874;10.734;2024-01-07T07:53:59;95549.59;;;2.06;94.08
76998;BME280;65930;48.874;10.734;2024-01-07T07:56:27;95548.00;;;1.86;94.89
76998;BME280;65930;48.874;10.734;2024-01-07T07:58:55;95554.44;;;1.77;94.79
76998;BME280;65930;48.874;10.734;2024-01-07T08:01:23;95542.22;;;1.71;95.64
76998;BME280;65930;48.874;10.734;2024-01-07T08:03:52;95555.72;;;1.99;94.27
76998;BME280;65930;48.874;10.734;2024-01-07T08:06:20;95548.91;;;2.09;94.63
76998;BME280;65930;48.874;10.734;2024-01-07T08:08:48;95560.19;;;1.72;94.40
76998;BME280;65930;48.874;10.734;2024-01-07T08:11:16;95567.75;;;2.14;94.17
76998;BME280;65930;48.874;10.734;2024-01-07T08:13:45;95561.09;;;1.96;93.49
76998;BME280;65930;48.874;10.734;2024-01-07T08:16:14;95564.44;;;2.05;94.03
76998;BME280;65930;48.874;10.734;2024-01-07T08:18:42;95573.25;;;1.98;92.47
76998;BME280;65930;48.874;10.734;2024-01-07T08:21:10;95571.13;;;1.92;94.20
76998;BME280;65930;48.874;10.734;2024-01-07T08:23:38;95565.97;;;1.87;94.19
76998;BME280;65930;48.874;10.734;2024-01-07T08:26:08;95574.00;;;1.80;93.77
76998;BME280;65930;48.874;10.734;2024-01-07T08:28:36;95573.84;;;1.72;93.33
76998;BME280;65930;48.874;10.734;2024-01-07T08:31:04;95576.66;;;1.76;94.25
76998;BME280;65930;48.874;10.734;2024-01-07T08:33:33;95566.53;;;1.61;94.33
76998;BME280;65930;48.874;10.734;2024-01-07T08:36:02;95573.53;;;1.58;93.78
76998;BME280;65930;48.874;10.734;2024-01-07T08:38:31;95573.25;;;1.48;93.67
76998;BME280;65930;48.874;10.734;2024-01-07T08:40:59;95569.94;;;1.39;94.05
76998;BME280;65930;48.874;10.734;2024-01-07T08:43:28;95579.16;;;1.34;94.96
76998;BME280;65930;48.874;10.734;2024-01-07T08:45:56;95568.44;;;1.25;94.25
76998;BME280;65930;48.874;10.734;2024-01-07T08:48:24;95574.22;;;1.55;94.17
76998;BME280;65930;48.874;10.734;2024-01-07T08:50:52;95577.66;;;1.87;92.42
76998;BME280;65930;48.874;10.734;2024-01-07T08:53:20;95586.78;;;1.75;92.42
76998;BME280;65930;48.874;10.734;2024-01-07T08:55:49;95589.56;;;1.44;93.25
76998;BME280;65930;48.874;10.734;2024-01-07T08:58:17;95593.88;;;1.96;91.67
76998;BME280;65930;48.874;10.734;2024-01-07T09:00:46;95594.91;;;1.72;92.18
76998;BME280;65930;48.874;10.734;2024-01-07T09:03:15;95606.47;;;1.34;93.45
76998;BME280;65930;48.874;10.734;2024-01-07T09:05:43;95605.72;;;1.68;92.31
76998;BME280;65930;48.874;10.734;2024-01-07T09:08:11;95610.69;;;1.47;92.68
76998;BME280;65930;48.874;10.734;2024-01-07T09:10:41;95613.75;;;1.77;92.58
76998;BME280;65930;48.874;10.734;2024-01-07T09:13:09;95615.16;;;1.71;91.99
76998;BME280;65930;48.874;10.734;2024-01-07T09:15:37;95621.69;;;1.66;91.58
76998;BME280;65930;48.874;10.734;2024-01-07T09:18:07;95626.22;;;1.78;90.68
76998;BME280;65930;48.874;10.734;2024-01-07T09:20:36;95635.94;;;1.60;92.99
76998;BME280;65930;48.874;10.734;2024-01-07T09:23:04;95643.22;;;1.40;92.89
76998;BME280;65930;48.874;10.734;2024-01-07T09:25:32;95640.84;;;1.54;92.53
76998;BME280;65930;48.874;10.734;2024-01-07T09:28:00;95637.78;;;1.56;92.38
76998;BME280;65930;48.874;10.734;2024-01-07T09:30:28;95638.31;;;1.61;91.91
76998;BME280;65930;48.874;10.734;2024-01-07T09:32:56;95640.41;;;1.84;91.15
76998;BME280;65930;48.874;10.734;2024-01-07T09:35:26;95650.91;;;1.50;91.78
76998;BME280;65930;48.874;10.734;2024-01-07T09:37:54;95647.19;;;1.27;93.55
76998;BME280;65930;48.874;10.734;2024-01-07T09:40:22;95653.44;;;1.59;91.68
76998;BME280;65930;48.874;10.734;2024-01-07T09:42:50;95646.75;;;1.88;90.69
76998;BME280;65930;48.874;10.734;2024-01-07T09:45:18;95645.19;;;1.87;91.20
76998;BME280;65930;48.874;10.734;2024-01-07T09:47:49;95649.41;;;1.68;91.21
76998;BME280;65930;48.874;10.734;2024-01-07T09:50:17;95639.56;;;1.48;91.51
76998;BME280;65930;48.874;10.734;2024-01-07T09:52:48;95641.75;;;1.58;91.34
76998;BME280;65930;48.874;10.734;2024-01-07T09:55:25;95648.78;;;1.75;90.65
76998;BME280;65930;48.874;10.734;2024-01-07T09:57:54;95651.19;;;1.76;90.24
76998;BME280;65930;48.874;10.734;2024-01-07T10:00:22;95648.97;;;1.35;91.54
76998;BME280;65930;48.874;10.734;2024-01-07T10:02:50;95645.19;;;1.55;90.72
76998;BME280;65930;48.874;10.734;2024-01-07T10:05:18;95648.91;;;1.63;90.30
76998;BME280;65930;48.874;10.734;2024-01-07T10:07:48;95648.00;;;1.59;89.51
76998;BME280;65930;48.874;10.734;2024-01-07T10:10:17;95653.31;;;1.67;89.57
76998;BME280;65930;48.874;10.734;2024-01-07T10:12:45;95657.69;;;1.56;89.83
76998;BME280;65930;48.874;10.734;2024-01-07T10:15:14;95653.09;;;1.29;90.14
76998;BME280;65930;48.874;10.734;2024-01-07T10:17:42;95658.03;;;1.39;89.78
76998;BME280;65930;48.874;10.734;2024-01-07T10:20:11;95653.03;;;1.25;90.68
76998;BME280;65930;48.874;10.734;2024-01-07T10:22:40;95661.63;;;1.12;91.44
76998;BME280;65930;48.874;10.734;2024-01-07T10:25:09;95652.78;;;1.03;91.34
76998;BME280;65930;48.874;10.734;2024-01-07T10:27:37;95664.25;;;0.80;91.52
76998;BME280;65930;48.874;10.734;2024-01-07T10:30:06;95658.19;;;1.15;91.48
76998;BME280;65930;48.874;10.734;2024-01-07T10:32:35;95656.09;;;1.55;88.95
76998;BME280;65930;48.874;10.734;2024-01-07T10:35:13;95648.75;;;1.12;91.81
76998;BME280;65930;48.874;10.734;2024-01-07T10:37:43;95650.50;;;1.05;91.52
76998;BME280;65930;48.874;10.734;2024-01-07T10:40:13;95660.09;;;0.71;92.05
76998;BME280;65930;48.874;10.734;2024-01-07T10:42:43;95664.75;;;0.70;92.92
76998;BME280;65930;48.874;10.734;2024-01-07T10:45:12;95657.41;;;0.86;92.25
76998;BME280;65930;48.874;10.734;2024-01-07T10:47:48;95660.78;;;0.96;91.68
76998;BME280;65930;48.874;10.734;2024-01-07T10:50:18;95662.41;;;0.84;91.98
76998;BME280;65930;48.874;10.734;2024-01-07T10:52:49;95660.28;;;1.06;91.25
76998;BME280;65930;48.874;10.734;2024-01-07T10:55:22;95663.59;;;0.99;91.73
76998;BME280;65930;48.874;10.734;2024-01-07T10:57:53;95678.84;;;0.32;93.57
76998;BME280;65930;48.874;10.734;2024-01-07T11:00:23;95671.44;;;1.01;91.44
76998;BME280;65930;48.874;10.734;2024-01-07T11:03:04;95664.41;;;1.00;91.28
76998;BME280;65930;48.874;10.734;2024-01-07T11:05:40;95666.97;;;0.53;93.65
76998;BME280;65930;48.874;10.734;2024-01-07T11:08:19;95660.91;;;0.31;93.09
76998;BME280;65930;48.874;10.734;2024-01-07T11:10:58;95657.59;;;1.37;91.23
76998;BME280;65930;48.874;10.734;2024-01-07T11:13:33;95670.31;;;0.34;93.87
76998;BME280;65930;48.874;10.734;2024-01-07T11:16:02;95659.50;;;0.77;93.56
76998;BME280;65930;48.874;10.734;2024-01-07T11:18:31;95665.50;;;1.11;91.08
76998;BME280;65930;48.874;10.734;2024-01-07T11:21:02;95669.41;;;0.42;92.84
76998;BME280;65930;48.874;10.734;2024-01-07T11:23:31;95667.97;;;1.16;91.66
76998;BME280;65930;48.874;10.734;2024-01-07T11:26:03;95674.84;;;0.42;93.35
76998;BME280;65930;48.874;10.734;2024-01-07T11:28:47;95674.09;;;0.69;94.04
76998;BME280;65930;48.874;10.734;2024-01-07T11:31:17;95671.75;;;0.56;93.25
76998;BME280;65930;48.874;10.734;2024-01-07T11:33:47;95667.34;;;0.79;93.42
76998;BME280;65930;48.874;10.734;2024-01-07T11:36:17;95676.50;;;0.86;91.22
76998;BME280;65930;48.874;10.734;2024-01-07T11:38:48;95668.91;;;0.52;93.15
76998;BME280;65930;48.874;10.734;2024-01-07T11:41:24;95679.94;;;0.43;94.70
76998;BME280;65930;48.874;10.734;2024-01-07T11:43:55;95676.41;;;0.55;93.92
76998;BME280;65930;48.874;10.734;2024-01-07T11:46:31;95674.88;;;0.98;92.12
76998;BME280;65930;48.874;10.734;2024-01-07T11:48:59;95686.97;;;1.28;91.81
76998;BME280;65930;48.874;10.734;2024-01-07T11:51:30;95682.50;;;0.92;92.52
76998;BME280;65930;48.874;10.734;2024-01-07T11:54:00;95693.19;;;0.57;91.98
76998;BME280;65930;48.874;10.734;2024-01-07T11:56:29;95696.84;;;0.49;94.11
76998;BME280;65930;48.874;10.734;2024-01-07T11:58:57;95701.72;;;0.56;93.43
76998;BME280;65930;48.874;10.734;2024-01-07T12:01:26;95687.75;;;0.57;95.54
76998;BME280;65930;48.874;10.734;2024-01-07T12:03:54;95692.34;;;0.29;94.78
76998;BME280;65930;48.874;10.734;2024-01-07T12:06:23;95695.66;;;0.22;94.95
76998;BME280;65930;48.874;10.734;2024-01-07T12:08:51;95688.19;;;0.07;94.78
76998;BME280;65930;48.874;10.734;2024-01-07T12:11:20;95704.56;;;0.47;94.28
76998;BME280;65930;48.874;10.734;2024-01-07T12:13:50;95700.81;;;-0.01;94.04
76998;BME280;65930;48.874;10.734;2024-01-07T12:16:18;95694.56;;;-0.01;95.23
76998;BME280;65930;48.874;10.734;2024-01-07T12:18:47;95697.94;;;0.32;93.88
76998;BME280;65930;48.874;10.734;2024-01-07T12:21:19;95701.06;;;0.47;94.10
76998;BME280;65930;48.874;10.734;2024-01-07T12:23:48;95689.47;;;0.37;94.25
76998;BME280;65930;48.874;10.734;2024-01-07T12:26:18;95693.72;;;0.35;94.82
76998;BME280;65930;48.874;10.734;2024-01-07T12:28:54;95690.97;;;0.35;95.66
76998;BME280;65930;48.874;10.734;2024-01-07T12:31:23;95700.31;;;0.10;95.92
76998;BME280;65930;48.874;10.734;2024-01-07T12:33:52;95704.63;;;0.11;95.71
76998;BME280;65930;48.874;10.734;2024-01-07T12:36:21;95712.44;;;0.24;94.97
76998;BME280;65930;48.874;10.734;2024-01-07T12:38:49;95708.81;;;0.20;95.14
76998;BME280;65930;48.874;10.734;2024-01-07T12:41:21;95706.91;;;-0.04;95.02
76998;BME280;65930;48.874;10.734;2024-01-07T12:43:49;95714.59;;;0.19;94.50
76998;BME280;65930;48.874;10.734;2024-01-07T12:46:19;95703.66;;;0.55;93.32
76998;BME280;65930;48.874;10.734;2024-01-07T12:48:48;95710.19;;;0.02;93.48
76998;BME280;65930;48.874;10.734;2024-01-07T12:51:16;95725.19;;;0.08;95.11
76998;BME280;65930;48.874;10.734;2024-01-07T12:53:48;95723.13;;;-0.07;94.11
76998;BME280;65930;48.874;10.734;2024-01-07T12:56:16;95719.72;;;0.32;93.06
76998;BME280;65930;48.874;10.734;2024-01-07T12:58:44;95716.22;;;0.08;93.31
76998;BME280;65930;48.874;10.734;2024-01-07T13:01:13;95721.88;;;0.27;94.27
76998;BME280;65930;48.874;10.734;2024-01-07T13:03:43;95716.66;;;-0.03;92.81
76998;BME280;65930;48.874;10.734;2024-01-07T13:06:11;95719.59;;;0.29;94.96